This is the latest recevied weather packets stored in our database for station/object IU2RPR-3. If no packets are shown the sender has not sent any weather packets the latest 1 day(s).
| Time | Temp. | Humidity | Pressure | Rain* | Wind** | Luminosity | Snow |
|---|---|---|---|---|---|---|---|
| 1778103782 | 12.22° C | 86% | 1013.6 hPa | - | - | - | - |
| 1778096565 | 12.78° C | 80% | 1013.3 hPa | - | - | - | - |
| 1778091152 | 12.22° C | 91% | 1011.8 hPa | - | - | - | - |
| 1778085748 | 13.33° C | 80% | 1010.2 hPa | - | - | - | - |
| 1778079046 | 19.44° C | 73% | 1009.6 hPa | - | - | - | - |
| 1778071841 | 20° C | 76% | 1011 hPa | - | - | - | - |
| 1778070040 | 17.78° C | 85% | 1011.4 hPa | - | - | - | - |
| 1778062834 | 16.11° C | 93% | 1012.1 hPa | - | - | - | - |
| 1778061033 | 15.56° C | 95% | 1012.1 hPa | - | - | - | - |
| 1778053828 | 14.44° C | 98% | 1012.1 hPa | - | - | - | - |
| 1778048424 | 13.33° C | 99% | 1012.7 hPa | - | - | - | - |
| 1778046623 | 13.33° C | 99% | 1012.5 hPa | - | - | - | - |
| 1778044822 | 13.33° C | 99% | 1012.6 hPa | - | - | - | - |
| 1778039418 | 13.33° C | 99% | 1012.9 hPa | - | - | - | - |
| 1778037617 | 13.33° C | 99% | 1012.9 hPa | - | - | - | - |
| 1778035816 | 13.33° C | 99% | 1013.5 hPa | - | - | - | - |
| 1778034014 | 13.89° C | 99% | 1013.8 hPa | - | - | - | - |
| 1778032213 | 13.33° C | 99% | 1013.9 hPa | - | - | - | - |
| 1778030412 | 13.89° C | 99% | 1014 hPa | - | - | - | - |
| 1778028611 | 13.89° C | 99% | 1014.4 hPa | - | - | - | - |
* Rain since midnight (hover to see other rain measurements)
** Current wind speed in m/s (hover to see current wind gust speed)